Time;durP1;ratioP1;P1;durP2;ratioP2;P2;SDS_P1;SDS_P2;PMS_P1;PMS_P2;Temp;Humidity;BMP_temperature;BMP_pressure;BME280_temperature;BME280_humidity;BME280_pressure;Samples;Min_cycle;Max_cycle;Signal;HPM_P1;HPM_P2
2022/10/23 00:01:27;;;;;;;6.50;5.90;;;;;;;21.61;60.10;101542.19;5136848;27;20047;-81
2022/10/23 00:04:03;;;;;;;6.85;6.25;;;;;;;21.61;60.08;101539.47;5137181;27;20066;-82
2022/10/23 00:06:33;;;;;;;7.05;6.35;;;;;;;21.63;60.01;101542.88;5137036;27;20043;-82
2022/10/23 00:09:02;;;;;;;6.93;6.00;;;;;;;21.61;60.08;101548.41;5136313;27;20070;-81
2022/10/23 00:11:30;;;;;;;6.57;5.97;;;;;;;21.61;59.94;101551.09;5136645;27;20479;-81
2022/10/23 00:14:00;;;;;;;7.68;5.90;;;;;;;21.62;60.13;101552.81;5136761;27;20070;-81
2022/10/23 00:16:28;;;;;;;6.68;5.97;;;;;;;21.61;60.00;101545.72;5136500;27;20047;-82
2022/10/23 00:18:56;;;;;;;6.22;5.55;;;;;;;21.62;60.03;101536.66;5136716;27;20043;-81
2022/10/23 00:21:24;;;;;;;6.50;5.90;;;;;;;21.61;60.09;101543.03;5136959;27;20462;-81
2022/10/23 00:23:52;;;;;;;5.90;5.40;;;;;;;21.62;60.11;101543.88;5136117;27;20394;-81
2022/10/23 00:26:19;;;;;;;6.80;6.07;;;;;;;21.60;60.05;101552.09;5136123;27;20047;-81
2022/10/23 00:28:50;;;;;;;6.80;6.20;;;;;;;21.61;60.03;101561.88;5136213;27;20373;-81
2022/10/23 00:31:19;;;;;;;6.68;5.80;;;;;;;21.62;60.04;101560.91;5117308;28;20051;-82
2022/10/23 00:33:47;;;;;;;7.68;5.78;;;;;;;21.61;59.98;101561.88;5117374;28;20054;-81
2022/10/23 00:36:17;;;;;;;7.00;6.30;;;;;;;21.62;60.06;101571.69;5116971;28;20402;-81
2022/10/23 00:38:45;;;;;;;6.50;5.80;;;;;;;21.61;60.03;101575.34;5116946;28;20051;-82
2022/10/23 00:41:18;;;;;;;6.47;5.88;;;;;;;21.60;60.10;101576.34;5116965;28;20375;-81
2022/10/23 00:44:29;;;;;;;6.97;6.38;;;;;;;21.61;60.02;101571.81;5136225;28;20043;-81
2022/10/23 00:46:58;;;;;;;6.70;6.10;;;;;;;21.60;60.05;101576.34;5135916;27;20052;-81
2022/10/23 00:49:27;;;;;;;6.85;6.15;;;;;;;21.61;60.03;101561.88;5117805;28;20395;-81
2022/10/23 00:52:03;;;;;;;6.32;5.70;;;;;;;21.61;60.02;101577.19;5100318;28;20047;-81
2022/10/23 00:54:42;;;;;;;6.78;6.18;;;;;;;21.61;60.03;101575.34;5136179;28;20055;-82
2022/10/23 00:57:12;;;;;;;7.55;6.80;;;;;;;21.62;59.99;101568.13;5117215;28;20051;-81
2022/10/23 00:59:39;;;;;;;7.25;6.43;;;;;;;21.61;59.98;101572.66;5116893;28;20047;-81
2022/10/23 01:02:07;;;;;;;6.57;5.68;;;;;;;21.62;60.02;101576.22;5135825;28;20046;-81
2022/10/23 01:04:35;;;;;;;6.65;5.97;;;;;;;21.60;60.06;101570.97;5136827;28;20051;-81
2022/10/23 01:07:21;;;;;;;7.28;6.55;;;;;;;21.61;60.02;101563.72;5135523;28;20043;-82
2022/10/23 01:10:06;;;;;;;8.25;7.45;;;;;;;21.60;60.01;101562.88;5117477;28;20054;-82
2022/10/23 01:12:42;;;;;;;6.75;6.05;;;;;;;21.60;60.03;101562.88;5117765;28;20510;-82
2022/10/23 01:15:21;;;;;;;6.78;6.18;;;;;;;21.61;60.01;101561.03;5116996;28;20054;-82
2022/10/23 01:18:12;;;;;;;6.95;6.25;;;;;;;21.60;59.99;101549.41;5116850;28;20058;-82
2022/10/23 01:20:58;;;;;;;7.05;6.35;;;;;;;21.60;59.95;101554.78;5116880;28;20482;-82
2022/10/23 01:23:45;;;;;;;7.50;6.20;;;;;;;21.59;60.02;101561.19;5117533;28;20540;-82
2022/10/23 01:26:12;;;;;;;8.05;6.22;;;;;;;21.60;59.97;101559.34;5116895;28;20043;-82
2022/10/23 01:29:08;;;;;;;6.93;6.22;;;;;;;21.60;59.99;101549.41;5117636;28;20051;-82
2022/10/23 01:31:44;;;;;;;6.72;5.50;;;;;;;21.59;60.00;101550.41;5117437;28;20054;-82
2022/10/23 01:34:17;;;;;;;6.80;6.03;;;;;;;21.60;59.93;101548.56;5116819;28;20055;-81
2022/10/23 01:36:46;;;;;;;;;;;;;;;21.60;60.00;101559.34;5117115;28;20050;-81
2022/10/23 01:39:24;;;;;;;6.75;6.15;;;;;;;21.60;59.98;101552.09;5116363;28;19919;-81
2022/10/23 01:42:01;;;;;;;6.43;5.82;;;;;;;21.59;59.94;101557.59;5116640;28;20047;-81
2022/10/23 01:44:36;;;;;;;7.25;6.00;;;;;;;21.59;59.94;101558.47;5117405;28;20051;-82
2022/10/23 01:47:08;;;;;;;9.35;6.38;;;;;;;21.59;60.00;101571.97;5116660;28;20410;-82
2022/10/23 01:49:50;;;;;;;7.25;6.60;;;;;;;21.61;59.95;101563.72;5117820;27;20058;-81
2022/10/23 01:52:20;;;;;;;6.80;6.20;;;;;;;21.60;59.90;101560.19;5138909;27;20046;-82
2022/10/23 01:54:52;;;;;;;7.80;6.70;;;;;;;21.60;60.01;101562.03;5120149;27;20054;-81
2022/10/23 01:57:21;;;;;;;6.15;5.65;;;;;;;21.58;60.07;101559.44;5139591;27;20047;-82
2022/10/23 02:00:00;;;;;;;6.72;6.13;;;;;;;21.60;59.88;101562.03;5119987;27;20055;-81
2022/10/23 02:02:31;;;;;;;6.93;6.20;;;;;;;21.60;59.89;101570.97;5120092;27;20043;-81
2022/10/23 02:05:11;;;;;;;6.90;6.28;;;;;;;21.59;59.90;101566.56;5139679;27;20410;-81
2022/10/23 02:07:38;;;;;;;6.55;5.65;;;;;;;21.60;60.02;101562.03;5138868;27;20055;-81
2022/10/23 02:10:08;;;;;;;7.60;6.28;;;;;;;21.59;59.98;101563.88;5119822;27;20506;-81
2022/10/23 02:12:38;;;;;;;6.95;6.25;;;;;;;21.60;59.95;101548.56;5119675;27;20039;-81
2022/10/23 02:15:13;;;;;;;6.95;6.35;;;;;;;21.60;59.83;101553.94;5120255;27;20506;-82
2022/10/23 02:17:59;;;;;;;6.53;5.93;;;;;;;21.59;59.87;101549.50;5119817;27;20055;-82
2022/10/23 02:20:46;;;;;;;7.30;6.07;;;;;;;21.60;59.91;101551.25;5119982;27;20058;-81
2022/10/23 02:23:19;;;;;;;7.35;6.57;;;;;;;21.59;59.82;101558.47;5119570;27;20051;-81
2022/10/23 02:26:01;;;;;;;6.30;5.70;;;;;;;21.59;59.87;101553.09;5119912;27;20054;-81
2022/10/23 02:28:39;;;;;;;7.70;6.90;;;;;;;21.58;59.84;101556.75;5119394;27;20062;-81
2022/10/23 02:31:12;;;;;;;7.38;6.15;;;;;;;21.59;59.80;101553.09;5120144;27;20050;-81
2022/10/23 02:33:40;;;;;;;7.68;6.18;;;;;;;21.59;59.80;101545.00;5119944;27;20062;-81
2022/10/23 02:36:08;;;;;;;6.70;6.10;;;;;;;21.59;59.81;101555.78;5103119;27;20047;-81
2022/10/23 02:38:39;;;;;;;7.95;6.07;;;;;;;21.59;60.00;101557.59;5119565;27;20043;-81
2022/10/23 02:41:18;;;;;;;7.10;6.40;;;;;;;21.58;59.88;101553.19;5138848;27;20061;-81
2022/10/23 02:44:07;;;;;;;7.32;6.63;;;;;;;21.59;59.83;101549.50;5119384;27;20055;-81
2022/10/23 02:47:16;;;;;;;6.32;5.78;;;;;;;21.58;59.80;101556.75;5120324;27;20054;-81
2022/10/23 02:49:59;;;;;;;6.78;6.18;;;;;;;21.58;59.89;101555.91;5118659;27;20059;-81
2022/10/23 02:52:54;;;;;;;7.88;7.18;;;;;;;21.58;59.81;101548.66;5137842;27;20039;-80
2022/10/23 02:55:29;;;;;;;6.90;6.03;;;;;;;21.59;59.76;101547.72;5119125;27;20058;-81
2022/10/23 02:58:19;;;;;;;7.25;5.95;;;;;;;21.58;59.80;101551.34;5119119;27;20120;-81
2022/10/23 03:00:54;;;;;;;6.80;6.10;;;;;;;21.58;59.81;101554.06;5118856;27;20433;-81
2022/10/23 03:03:28;;;;;;;6.65;5.80;;;;;;;21.58;59.71;101559.44;5118775;27;20050;-81
2022/10/23 03:05:56;;;;;;;6.22;5.63;;;;;;;21.58;59.76;101547.81;5118856;27;20054;-82
2022/10/23 03:08:24;;;;;;;9.13;6.70;;;;;;;21.57;59.78;101555.03;5118548;27;20061;-80
2022/10/23 03:10:51;;;;;;;8.77;6.57;;;;;;;21.58;59.80;101559.44;5118421;27;20051;-81
2022/10/23 03:13:20;;;;;;;6.65;6.10;;;;;;;21.57;59.76;101552.34;5118765;27;20043;-81
2022/10/23 03:15:48;;;;;;;6.97;6.28;;;;;;;21.58;59.73;101545.13;5118597;27;20055;-81
2022/10/23 03:18:15;;;;;;;7.22;6.63;;;;;;;21.57;59.78;101530.81;5118491;27;20054;-81
2022/10/23 03:20:49;;;;;;;6.72;6.13;;;;;;;21.59;59.75;101536.03;5117927;27;20043;-81
2022/10/23 03:23:16;;;;;;;7.78;6.10;;;;;;;21.57;59.73;101538.88;5137258;27;20043;-81
2022/10/23 03:25:43;;;;;;;7.20;6.50;;;;;;;21.57;59.75;101540.72;5118437;27;20057;-80
2022/10/23 03:28:25;;;;;;;7.90;7.00;;;;;;;21.57;59.73;101549.66;5118459;27;20062;-81
2022/10/23 03:30:52;;;;;;;6.85;6.15;;;;;;;21.57;59.64;101538.03;5118277;27;20051;-81
2022/10/23 03:33:19;;;;;;;8.25;6.18;;;;;;;21.57;59.69;101544.28;5137585;27;20035;-81
2022/10/23 03:35:48;;;;;;;6.95;6.25;;;;;;;21.58;59.70;101540.59;5136708;27;20046;-80
2022/10/23 03:38:16;;;;;;;8.05;7.25;;;;;;;21.58;59.62;101539.72;5118461;27;20070;-81
2022/10/23 03:40:43;;;;;;;6.85;6.20;;;;;;;21.58;59.71;101539.72;5136917;27;20058;-81
2022/10/23 03:43:12;;;;;;;6.97;6.35;;;;;;;21.57;59.61;101538.88;5101579;27;20043;-81
2022/10/23 03:45:40;;;;;;;9.93;6.88;;;;;;;21.57;59.67;101552.34;5136733;27;20039;-81
2022/10/23 03:48:07;;;;;;;7.07;6.47;;;;;;;21.57;59.79;101555.03;5117958;27;20047;-81
2022/10/23 03:50:35;;;;;;;7.13;6.43;;;;;;;21.57;59.63;101554.19;5118736;27;20062;-81
2022/10/23 03:53:04;;;;;;;7.85;6.40;;;;;;;21.57;59.71;101544.28;5118273;27;20403;-81
2022/10/23 03:55:33;;;;;;;8.15;7.32;;;;;;;21.57;59.66;101544.28;5117882;27;20055;-81
2022/10/23 03:58:00;;;;;;;6.72;5.88;;;;;;;21.58;59.72;101537.88;5118131;27;20051;-81
2022/10/23 04:00:28;;;;;;;6.68;6.07;;;;;;;21.57;59.64;101532.63;5117521;27;20055;-81
2022/10/23 04:02:55;;;;;;;6.70;6.10;;;;;;;21.57;59.64;101543.41;5117776;27;20062;-81
2022/10/23 04:05:23;;;;;;;7.28;6.68;;;;;;;21.57;59.58;101548.81;5117913;27;20491;-81
2022/10/23 04:07:54;;;;;;;7.07;6.47;;;;;;;21.56;59.50;101550.66;5114361;28;20063;-81
2022/10/23 04:10:22;;;;;;;7.78;7.07;;;;;;;21.57;59.65;101555.03;5114782;28;20048;-81
2022/10/23 04:12:50;;;;;;;7.60;6.90;;;;;;;21.56;59.65;101561.44;5114167;28;20055;-80
2022/10/23 04:15:17;;;;;;;7.10;6.50;;;;;;;21.56;59.55;101552.50;5114334;28;20056;-81
2022/10/23 04:17:45;;;;;;;7.03;6.38;;;;;;;21.58;59.57;101545.13;5114241;28;20499;-81
2022/10/23 04:20:13;;;;;;;7.30;6.65;;;;;;;21.56;59.59;101550.66;5114498;28;20051;-81
2022/10/23 04:22:40;;;;;;;6.57;6.03;;;;;;;21.57;59.59;101565.81;5114138;28;20043;-81
2022/10/23 04:25:10;;;;;;;7.20;6.25;;;;;;;21.56;59.60;101557.88;5113845;28;20407;-81
2022/10/23 04:27:37;;;;;;;6.82;6.15;;;;;;;21.56;59.63;101555.19;5114016;28;20047;-81
2022/10/23 04:30:05;;;;;;;7.32;6.63;;;;;;;21.56;59.68;101569.50;5115860;28;20059;-80
2022/10/23 04:32:32;;;;;;;7.13;6.40;;;;;;;21.56;59.62;101565.97;5113936;28;20048;-81
2022/10/23 04:35:00;;;;;;;6.78;6.13;;;;;;;21.56;59.63;101560.56;5113719;28;20050;-81
2022/10/23 04:37:29;;;;;;;6.88;6.28;;;;;;;21.56;59.56;101553.34;5113978;28;20433;-81
2022/10/23 04:39:56;;;;;;;6.93;6.28;;;;;;;21.56;59.59;101558.72;5114100;28;20051;-81
2022/10/23 04:42:24;;;;;;;6.75;6.10;;;;;;;21.57;59.66;101551.50;5113988;28;20438;-81
2022/10/23 04:44:58;;;;;;;7.85;7.07;;;;;;;21.57;59.62;101548.81;5114854;28;20058;-81
2022/10/23 04:47:27;;;;;;;6.75;6.07;;;;;;;21.56;59.62;101564.13;5113404;28;20070;-80
2022/10/23 04:49:59;;;;;;;6.35;5.82;;;;;;;21.55;59.61;101567.78;5097454;28;20047;-81
2022/10/23 04:52:44;;;;;;;6.55;5.85;;;;;;;21.55;59.53;101565.09;5122850;28;20494;-80
2022/10/23 04:55:30;;;;;;;7.93;7.13;;;;;;;21.56;59.58;101561.44;5122130;28;20058;-81
2022/10/23 04:58:12;;;;;;;6.60;5.90;;;;;;;21.56;59.57;101547.97;5113670;28;20403;-81
2022/10/23 05:00:40;;;;;;;6.88;6.25;;;;;;;21.55;59.56;101551.59;5113318;28;20055;-81
2022/10/23 05:03:08;;;;;;;6.90;6.28;;;;;;;21.55;59.55;101562.38;5113082;28;20059;-81
2022/10/23 05:05:40;;;;;;;7.03;6.43;;;;;;;21.55;59.54;101569.63;5113765;28;20063;-81
2022/10/23 05:08:46;;;;;;;6.80;6.18;;;;;;;21.52;59.58;101562.66;5038591;28;20045;-81
2022/10/23 05:11:35;;;;;;;8.13;7.43;;;;;;;21.56;59.55;101568.66;5032722;28;20152;-81
2022/10/23 05:14:06;;;;;;;6.90;6.20;;;;;;;21.56;59.56;101569.50;5015538;28;20042;-80
2022/10/23 05:16:47;;;;;;;7.25;6.15;;;;;;;21.56;59.58;101560.56;5032319;28;20045;-81
2022/10/23 05:19:22;;;;;;;7.22;6.63;;;;;;;21.56;59.59;101547.97;5015827;28;20053;-81
2022/10/23 05:21:54;;;;;;;6.93;6.30;;;;;;;21.55;59.51;101562.38;5016040;28;20054;-81
2022/10/23 05:24:25;;;;;;;7.95;7.25;;;;;;;21.55;59.48;101554.31;5017153;28;20041;-81
2022/10/23 05:26:59;;;;;;;7.22;6.53;;;;;;;21.55;59.54;101550.75;5019204;28;20050;-81
2022/10/23 05:29:30;;;;;;;7.55;6.63;;;;;;;21.54;59.50;101549.91;5018766;28;20045;-81
2022/10/23 05:32:03;;;;;;;9.23;6.53;;;;;;;21.54;59.54;101554.44;5019813;28;20050;-81
2022/10/23 05:34:34;;;;;;;6.90;6.18;;;;;;;21.55;59.51;101548.91;5020077;28;20041;-81
2022/10/23 05:37:03;;;;;;;8.02;7.22;;;;;;;21.55;59.53;101564.22;5019749;28;20579;-81
2022/10/23 05:39:35;;;;;;;7.05;6.35;;;;;;;21.54;59.68;101563.38;5064394;28;20051;-81
2022/10/23 05:42:07;;;;;;;7.60;6.90;;;;;;;21.55;59.49;101569.63;5096980;28;20052;-81
2022/10/23 05:44:35;;;;;;;8.63;7.00;;;;;;;21.54;59.57;101571.47;5096863;28;20503;-81
2022/10/23 05:47:25;;;;;;;8.60;7.28;;;;;;;21.55;59.56;101569.63;5088405;28;20070;-81
2022/10/23 05:50:01;;;;;;;11.23;8.32;;;;;;;21.55;59.55;101577.69;5098857;28;20040;-81
2022/10/23 05:53:06;;;;;;;7.57;6.32;;;;;;;21.54;59.61;101584.09;5098820;28;20524;-81
2022/10/23 05:55:48;;;;;;;8.73;7.60;;;;;;;21.54;59.55;101595.72;5096734;28;20055;-81
2022/10/23 05:58:30;;;;;;;7.18;6.47;;;;;;;21.54;59.59;101601.09;5096835;28;20510;-81
2022/10/23 06:01:13;;;;;;;8.15;6.47;;;;;;;21.54;59.49;101598.41;5113887;28;20048;-81
2022/10/23 06:04:06;;;;;;;8.90;7.20;;;;;;;21.55;59.55;101596.56;5095758;28;20052;-81
2022/10/23 06:06:53;;;;;;;7.70;7.00;;;;;;;21.54;59.65;101595.72;5096617;28;20059;-81
2022/10/23 06:09:20;;;;;;;8.57;7.32;;;;;;;21.53;59.51;101604.78;5116179;28;20051;-81
2022/10/23 06:11:52;;;;;;;6.97;6.38;;;;;;;21.54;59.50;101611.03;5116589;28;20055;-81
2022/10/23 06:14:21;;;;;;;8.35;7.47;;;;;;;21.53;59.60;101618.25;5116400;28;20047;-81
2022/10/23 06:16:51;;;;;;;9.23;7.53;;;;;;;21.55;59.57;101624.34;5116460;28;20051;-81
2022/10/23 06:19:19;;;;;;;7.40;6.70;;;;;;;21.54;59.60;101624.50;5116213;28;20051;-81
2022/10/23 06:21:50;;;;;;;7.82;6.20;;;;;;;21.54;59.61;101625.34;5116285;28;20052;-81
2022/10/23 06:24:18;;;;;;;8.52;6.38;;;;;;;21.54;59.57;101629.88;5115820;28;20043;-81
2022/10/23 06:26:53;;;;;;;8.05;6.72;;;;;;;21.53;59.51;101623.66;5116218;28;20054;-81
2022/10/23 06:29:31;;;;;;;10.02;7.55;;;;;;;21.54;59.57;101627.19;5116137;28;20121;-82
2022/10/23 06:32:00;;;;;;;7.63;6.93;;;;;;;21.53;59.66;101626.34;5116571;28;20051;-81
2022/10/23 06:34:27;;;;;;;7.25;6.45;;;;;;;21.54;59.61;101640.66;5115746;28;20051;-82
2022/10/23 06:36:54;;;;;;;7.57;6.78;;;;;;;21.53;59.60;101637.13;5115723;28;20044;-82
2022/10/23 06:39:34;;;;;;;6.68;6.07;;;;;;;21.54;59.42;101637.97;5115983;28;20052;-81
2022/10/23 06:42:08;;;;;;;7.55;6.60;;;;;;;21.53;59.53;101639.81;5116200;28;20047;-82
2022/10/23 06:44:55;;;;;;;7.65;6.95;;;;;;;21.54;59.60;101644.22;5124542;28;20043;-82
2022/10/23 06:47:54;;;;;;;7.70;6.95;;;;;;;21.53;59.57;101650.59;5075706;28;20056;-82
2022/10/23 06:50:40;;;;;;;7.22;6.53;;;;;;;21.53;59.60;101647.88;5080848;28;20067;-82
2022/10/23 06:53:14;;;;;;;7.75;6.82;;;;;;;21.53;59.45;101642.50;5057965;28;20056;-82
2022/10/23 06:55:47;;;;;;;7.22;6.47;;;;;;;21.53;59.61;101647.88;5057604;28;20052;-82
2022/10/23 06:58:19;;;;;;;7.68;6.93;;;;;;;21.54;59.66;101641.50;5056757;28;20048;-82
2022/10/23 07:01:07;;;;;;;7.95;6.88;;;;;;;21.52;59.65;101642.63;5056589;28;20049;-82
2022/10/23 07:03:35;;;;;;;7.22;6.57;;;;;;;21.52;59.65;101659.66;5057187;28;20048;-82
2022/10/23 07:06:08;;;;;;;6.70;6.10;;;;;;;21.52;59.62;101666.88;5057283;28;20049;-82
2022/10/23 07:08:36;;;;;;;7.30;6.63;;;;;;;21.52;59.62;101674.97;5057271;28;20385;-83
2022/10/23 07:11:16;;;;;;;7.22;6.50;;;;;;;21.53;59.64;101660.50;5074160;28;20053;-82
2022/10/23 07:13:45;;;;;;;7.00;6.30;;;;;;;21.53;59.61;101650.59;5057178;28;20049;-82
2022/10/23 07:16:21;;;;;;;6.95;6.25;;;;;;;21.53;59.61;101663.22;5057021;28;20056;-82
2022/10/23 07:18:57;;;;;;;6.65;6.07;;;;;;;21.52;59.75;101662.34;5057285;28;20499;-82
2022/10/23 07:21:30;;;;;;;7.80;7.05;;;;;;;21.53;59.61;101668.59;5081022;28;20061;-82
2022/10/23 07:24:15;;;;;;;6.43;5.82;;;;;;;21.52;59.73;101670.44;5070689;28;20052;-81
2022/10/23 07:26:43;;;;;;;6.55;5.97;;;;;;;21.50;59.65;101675.06;5097149;28;20044;-81
2022/10/23 07:29:12;;;;;;;6.70;6.00;;;;;;;21.52;59.69;101672.28;5095190;28;20052;-82
2022/10/23 07:31:40;;;;;;;6.38;5.78;;;;;;;21.53;59.63;101676.69;5095071;28;20052;-82
2022/10/23 07:34:40;;;;;;;6.57;5.97;;;;;;;21.53;59.67;101677.53;5097227;28;20051;-82
2022/10/23 07:37:33;;;;;;;7.07;6.38;;;;;;;21.51;59.66;101668.69;5095838;28;20048;-82
2022/10/23 07:40:04;;;;;;;6.65;6.05;;;;;;;21.53;59.67;101671.28;5095287;28;20492;-82
2022/10/23 07:42:37;;;;;;;6.75;6.15;;;;;;;21.52;59.60;101665.03;5095739;28;20530;-82
2022/10/23 07:45:07;;;;;;;7.53;6.85;;;;;;;21.53;59.68;101671.28;5095329;28;20048;-82
2022/10/23 07:47:37;;;;;;;6.75;6.05;;;;;;;21.53;59.69;101671.28;5094084;28;20056;-82
2022/10/23 07:50:05;;;;;;;6.55;5.95;;;;;;;21.51;59.67;101673.22;5111564;28;20044;-82
2022/10/23 07:52:34;;;;;;;7.40;6.35;;;;;;;21.51;59.55;101670.53;5094592;28;20048;-82
2022/10/23 07:55:09;;;;;;;7.05;6.45;;;;;;;21.52;59.67;101686.59;5094544;28;20066;-82
2022/10/23 07:57:42;;;;;;;;;;;;;;;21.52;59.71;101688.44;5095010;28;20052;-81
2022/10/23 08:00:30;;;;;;;7.65;6.85;;;;;;;21.51;59.69;101682.16;5095262;28;19920;-81
2022/10/23 08:03:09;;;;;;;7.63;6.90;;;;;;;21.52;59.64;101681.22;5111567;28;20055;-81
2022/10/23 08:05:37;;;;;;;6.93;6.10;;;;;;;21.52;59.71;101678.50;5094961;28;20055;-83
2022/10/23 08:08:04;;;;;;;7.63;6.28;;;;;;;21.52;59.75;101685.75;5113857;27;20055;-82
2022/10/23 08:10:32;;;;;;;6.80;6.20;;;;;;;21.51;59.74;101690.25;5117957;27;20055;-82
2022/10/23 08:13:00;;;;;;;7.18;6.10;;;;;;;21.51;59.73;101701.03;5118214;27;20043;-82
2022/10/23 08:15:49;;;;;;;7.05;6.45;;;;;;;21.51;59.72;101705.56;5118493;27;20056;-81
2022/10/23 08:18:41;;;;;;;6.50;5.85;;;;;;;21.52;59.72;101696.53;5128668;27;20426;-81
2022/10/23 08:21:08;;;;;;;6.60;5.95;;;;;;;21.51;59.72;101701.03;5118571;27;20058;-81
2022/10/23 08:23:36;;;;;;;6.30;5.70;;;;;;;21.53;59.73;101688.31;5117964;28;20054;-82
2022/10/23 08:26:05;;;;;;;6.18;5.68;;;;;;;21.51;59.64;101684.00;5100654;27;20054;-81
2022/10/23 08:28:32;;;;;;;7.28;6.57;;;;;;;21.50;59.74;101677.78;5136984;27;20039;-81
2022/10/23 08:31:09;;;;;;;6.85;6.15;;;;;;;21.48;59.72;101680.59;5117627;27;20058;-82
2022/10/23 08:33:39;;;;;;;7.20;6.45;;;;;;;21.51;59.66;101687.56;5117492;27;20047;-81
2022/10/23 08:36:27;;;;;;;7.20;6.50;;;;;;;21.50;59.79;101691.25;5117852;27;20051;-82
2022/10/23 08:38:56;;;;;;;6.88;6.00;;;;;;;21.49;59.70;101700.31;5117559;28;20062;-82
2022/10/23 08:41:35;;;;;;;7.07;6.47;;;;;;;21.50;59.81;101698.47;5117393;28;20055;-82
2022/10/23 08:44:31;;;;;;;6.70;6.00;;;;;;;21.49;59.66;101697.63;5117624;28;20047;-81
2022/10/23 08:47:15;;;;;;;7.32;6.60;;;;;;;21.50;59.73;101706.56;5137324;28;20051;-81
2022/10/23 08:50:27;;;;;;;7.32;6.18;;;;;;;21.48;59.54;101704.84;5053479;28;20053;-81
2022/10/23 08:53:06;;;;;;;6.10;5.50;;;;;;;21.50;59.59;101693.94;5052927;28;20056;-81
2022/10/23 08:55:38;;;;;;;6.40;5.78;;;;;;;21.50;59.74;101698.47;5053724;28;20521;-81
2022/10/23 08:58:34;;;;;;;6.50;5.90;;;;;;;21.50;59.77;101698.47;5053554;28;20060;-81
2022/10/23 09:01:19;;;;;;;6.88;6.28;;;;;;;21.50;59.72;101693.94;4978204;28;20509;-81
2022/10/23 09:03:47;;;;;;;7.60;6.07;;;;;;;21.50;59.90;101699.31;4978971;28;20058;-81
2022/10/23 09:06:39;;;;;;;6.22;5.70;;;;;;;21.48;59.72;101683.28;4978469;28;20059;-81
2022/10/23 09:09:39;;;;;;;7.22;6.53;;;;;;;21.48;59.75;101680.59;4977823;28;20074;-81
2022/10/23 09:12:16;;;;;;;7.47;6.78;;;;;;;21.50;59.77;101698.47;4978418;28;20063;-81
2022/10/23 09:15:14;;;;;;;7.25;6.55;;;;;;;21.50;59.73;101698.47;4978345;28;20191;-82
2022/10/23 09:17:42;;;;;;;6.90;6.28;;;;;;;21.50;59.71;101690.38;4978404;28;20058;-82
2022/10/23 09:20:24;;;;;;;7.13;6.53;;;;;;;21.50;59.72;101688.53;4977821;28;20435;-81
2022/10/23 09:22:58;;;;;;;6.93;6.25;;;;;;;21.50;59.77;101685.00;4978585;28;20051;-81
2022/10/23 09:25:29;;;;;;;6.20;5.70;;;;;;;21.51;59.76;101692.09;4961345;28;20047;-81
2022/10/23 09:27:59;;;;;;;6.25;5.70;;;;;;;21.50;59.74;101693.94;5038319;28;20448;-81
2022/10/23 09:30:33;;;;;;;7.18;6.47;;;;;;;21.49;59.78;101689.53;5040681;28;20068;-81
2022/10/23 09:33:13;;;;;;;5.80;5.22;;;;;;;21.49;59.63;101689.53;5056337;28;20048;-81
2022/10/23 09:36:03;;;;;;;6.88;6.18;;;;;;;21.50;59.75;101693.94;5056900;28;20060;-80
2022/10/23 09:38:46;;;;;;;7.38;6.78;;;;;;;21.49;59.74;101676.06;5118346;27;20059;-81
2022/10/23 09:41:35;;;;;;;7.20;6.50;;;;;;;21.51;59.66;101692.94;5140445;27;20043;-80
2022/10/23 09:44:19;;;;;;;6.82;6.22;;;;;;;21.49;59.82;101684.16;5139997;27;20058;-81
2022/10/23 09:46:52;;;;;;;6.38;5.78;;;;;;;21.50;59.66;101699.31;5120435;27;20051;-80
2022/10/23 09:49:25;;;;;;;6.78;6.07;;;;;;;21.50;59.70;101703.84;5139565;27;20395;-80
2022/10/23 09:51:57;;;;;;;6.22;5.63;;;;;;;21.48;59.69;101707.53;5139761;27;20043;-80
2022/10/23 09:54:26;;;;;;;7.00;6.33;;;;;;;21.48;59.79;101695.91;5139876;27;20054;-80
2022/10/23 09:56:55;;;;;;;7.20;6.55;;;;;;;21.48;59.82;101696.78;5139961;27;20043;-81
2022/10/23 09:59:28;;;;;;;6.70;6.10;;;;;;;21.49;59.81;101694.94;5139463;27;20051;-81
2022/10/23 10:01:59;;;;;;;6.40;5.90;;;;;;;21.50;59.88;101698.47;5139557;27;20047;-81
2022/10/23 10:04:45;;;;;;;6.05;5.55;;;;;;;21.48;59.86;101709.38;5146129;27;20050;-81
2022/10/23 10:07:24;;;;;;;7.05;6.45;;;;;;;21.50;59.86;101703.84;5138868;27;20047;-80
2022/10/23 10:09:53;;;;;;;7.45;6.82;;;;;;;21.48;59.85;101707.53;5138665;27;20054;-80
2022/10/23 10:12:38;;;;;;;6.65;6.05;;;;;;;21.48;59.82;101699.47;5138622;27;20046;-80
2022/10/23 10:15:34;;;;;;;6.93;6.22;;;;;;;21.48;59.74;101704.84;5139427;27;20043;-80
2022/10/23 10:18:27;;;;;;;8.13;6.75;;;;;;;21.48;59.83;101696.78;5120730;27;20065;-80
2022/10/23 10:21:24;;;;;;;6.65;6.05;;;;;;;21.49;59.79;101697.63;5138732;27;20043;-80
2022/10/23 10:24:03;;;;;;;7.40;6.50;;;;;;;21.49;59.85;101694.94;5103609;27;20053;-80
2022/10/23 10:26:43;;;;;;;6.72;6.07;;;;;;;21.49;59.76;101703.00;5138878;27;20043;-81
2022/10/23 10:29:40;;;;;;;7.55;6.85;;;;;;;21.49;59.78;101692.22;5139203;27;20043;-81
2022/10/23 10:32:36;;;;;;;6.20;5.68;;;;;;;21.48;59.89;101696.78;5120362;27;20051;-81
2022/10/23 10:35:25;;;;;;;6.88;6.22;;;;;;;21.48;59.75;101695.91;5138357;27;20394;-82
2022/10/23 10:38:20;;;;;;;6.38;5.78;;;;;;;21.48;59.78;101698.59;5139106;27;20051;-81
2022/10/23 10:41:00;;;;;;;6.47;5.88;;;;;;;21.48;59.80;101698.59;5120493;27;20051;-82
2022/10/23 10:43:36;;;;;;;6.40;5.82;;;;;;;21.48;59.80;101698.59;5139149;27;20047;-81
2022/10/23 10:46:30;;;;;;;6.43;5.82;;;;;;;21.49;59.79;101694.94;5139036;27;20035;-82
2022/10/23 10:49:05;;;;;;;;;;;;;;;21.48;59.79;101690.53;5034977;28;20097;-81
2022/10/23 10:51:44;;;;;;;6.80;6.20;;;;;;;21.49;59.74;101692.22;5034357;28;20020;-82
2022/10/23 10:54:20;;;;;;;6.50;5.90;;;;;;;21.47;59.75;101697.75;5034417;28;20061;-81
2022/10/23 10:56:48;;;;;;;6.72;6.13;;;;;;;21.49;59.77;101681.47;5034946;28;20068;-81
2022/10/23 10:59:30;;;;;;;6.78;6.18;;;;;;;21.47;59.86;101678.91;5034728;28;20053;-82
2022/10/23 11:02:36;;;;;;;7.10;6.40;;;;;;;21.47;59.77;101673.50;5035295;28;20429;-82
2022/10/23 11:05:27;;;;;;;7.10;6.50;;;;;;;21.48;59.81;101671.66;5034618;28;20053;-82
2022/10/23 11:08:27;;;;;;;7.32;6.63;;;;;;;21.49;59.83;101676.06;5034808;28;20072;-83
2022/10/23 11:11:01;;;;;;;7.18;6.55;;;;;;;21.48;59.98;101672.53;4937791;29;20059;-82
2022/10/23 11:13:33;;;;;;;7.65;6.78;;;;;;;21.47;59.85;101665.44;4937772;29;20067;-81
2022/10/23 11:16:25;;;;;;;7.30;6.60;;;;;;;21.47;59.83;101660.03;4938145;29;20060;-81
2022/10/23 11:19:11;;;;;;;6.68;6.07;;;;;;;21.48;59.87;101668.97;4937921;29;20413;-82
2022/10/23 11:21:45;;;;;;;7.13;6.25;;;;;;;21.47;59.80;101668.13;4936999;29;20563;-82
2022/10/23 11:24:22;;;;;;;7.65;6.82;;;;;;;21.48;59.92;101658.19;4937587;29;20060;-82
2022/10/23 11:27:12;;;;;;;7.00;6.40;;;;;;;21.47;59.86;101654.66;5014963;28;20086;-81
2022/10/23 11:30:14;;;;;;;6.65;6.05;;;;;;;21.48;59.73;101660.88;5035014;28;20101;-82
2022/10/23 11:32:46;;;;;;;6.72;6.13;;;;;;;21.48;59.83;101656.34;5034594;28;20080;-81
2022/10/23 11:35:41;;;;;;;6.97;6.38;;;;;;;21.48;59.85;101652.81;5035002;28;20541;-82
2022/10/23 11:38:23;;;;;;;7.13;6.53;;;;;;;21.49;59.72;101654.50;5033903;28;20053;-82
2022/10/23 11:40:53;;;;;;;7.10;6.40;;;;;;;21.48;59.80;101640.19;5034920;28;20057;-82
2022/10/23 11:43:32;;;;;;;6.82;6.20;;;;;;;21.48;59.79;101653.66;5018745;28;20141;-82
2022/10/23 11:46:28;;;;;;;6.75;6.15;;;;;;;21.48;59.82;101637.50;5035379;28;20057;-81
2022/10/23 11:48:56;;;;;;;6.78;6.18;;;;;;;21.48;59.83;101632.09;5126356;27;20522;-81
2022/10/23 11:51:35;;;;;;;6.82;6.22;;;;;;;21.49;59.81;101635.66;5138541;27;20050;-81
2022/10/23 11:54:15;;;;;;;7.22;6.63;;;;;;;21.49;59.88;101635.66;5138631;27;20054;-83
2022/10/23 11:57:10;;;;;;;7.03;6.43;;;;;;;21.49;59.86;101632.97;5137656;27;20396;-82
2022/10/23 11:59:44;;;;;;;6.50;5.90;;;;;;;21.49;59.85;101627.56;5137773;27;20047;-82
2022/10/23 12:02:30;;;;;;;6.68;6.07;;;;;;;21.48;59.84;101625.88;5137481;27;20039;-81
2022/10/23 12:05:06;;;;;;;7.00;6.22;;;;;;;21.48;59.80;101615.94;5137668;27;20047;-82
2022/10/23 12:07:39;;;;;;;6.95;6.35;;;;;;;21.48;59.74;101613.25;5136893;27;20046;-81
2022/10/23 12:10:34;;;;;;;6.70;6.10;;;;;;;21.50;59.86;101623.03;5137840;27;20386;-81